Time;durP1;ratioP1;P1;durP2;ratioP2;P2;SDS_P1;SDS_P2;PMS_P1;PMS_P2;Temp;Humidity;BMP_temperature;BMP_pressure;BME280_temperature;BME280_humidity;BME280_pressure;Samples;Min_cycle;Max_cycle;Signal;HPM_P1;HPM_P2
2023/03/21 00:01:52;;;;;;;17.05;8.07;;;12.30;99.90;;;;;;4978173;28;20027;-75
2023/03/21 00:04:18;;;;;;;18.20;8.45;;;12.30;99.90;;;;;;4972953;28;20042;-74
2023/03/21 00:06:44;;;;;;;16.38;7.88;;;12.30;99.90;;;;;;4971041;28;20027;-74
2023/03/21 00:09:11;;;;;;;22.60;8.27;;;12.30;99.90;;;;;;4971646;28;20074;-75
2023/03/21 00:11:36;;;;;;;15.80;7.85;;;12.30;99.90;;;;;;4980670;28;20034;-74
2023/03/21 00:14:02;;;;;;;16.63;7.72;;;12.20;99.90;;;;;;4973066;28;20041;-74
2023/03/21 00:16:29;;;;;;;16.33;8.43;;;12.20;99.90;;;;;;4970609;28;20030;-74
2023/03/21 00:18:56;;;;;;;18.58;8.30;;;12.30;99.90;;;;;;4969077;28;20050;-75
2023/03/21 00:21:37;;;;;;;16.88;7.75;;;12.20;99.90;;;;;;4972003;28;20103;-74
2023/03/21 00:24:04;;;;;;;14.27;7.78;;;12.30;99.90;;;;;;4975411;28;20089;-74
2023/03/21 00:26:30;;;;;;;14.25;7.40;;;12.30;99.90;;;;;;4975430;28;20097;-75
2023/03/21 00:28:56;;;;;;;17.95;7.97;;;12.30;99.90;;;;;;4979858;28;20062;-73
2023/03/21 00:31:22;;;;;;;14.55;7.82;;;12.30;99.90;;;;;;4973050;28;20429;-74
2023/03/21 00:33:47;;;;;;;18.45;8.63;;;12.40;99.90;;;;;;4969057;28;20039;-75
2023/03/21 00:36:14;;;;;;;14.85;7.45;;;12.40;99.90;;;;;;4967091;28;20022;-75
2023/03/21 00:38:40;;;;;;;16.35;7.55;;;12.40;99.90;;;;;;4968755;28;20047;-74
2023/03/21 00:41:09;;;;;;;12.48;8.20;;;12.40;99.90;;;;;;4976794;28;20030;-75
2023/03/21 00:43:36;;;;;;;13.30;7.50;;;12.40;99.90;;;;;;4976636;28;20538;-74
2023/03/21 00:46:02;;;;;;;19.67;7.35;;;12.40;99.90;;;;;;4977213;28;20522;-74
2023/03/21 00:48:28;;;;;;;14.30;7.45;;;12.30;99.90;;;;;;4966822;28;20041;-74
2023/03/21 00:50:56;;;;;;;17.65;8.13;;;12.30;99.90;;;;;;4973263;28;20497;-75
2023/03/21 00:53:22;;;;;;;12.15;7.35;;;12.40;99.90;;;;;;4963768;28;20117;-74
2023/03/21 00:55:48;;;;;;;17.58;7.65;;;12.40;99.90;;;;;;4979227;28;20030;-74
2023/03/21 00:58:15;;;;;;;18.23;7.80;;;12.40;99.90;;;;;;4969155;28;20023;-74
2023/03/21 01:00:41;;;;;;;15.00;6.72;;;12.40;99.90;;;;;;4974258;28;20031;-74
2023/03/21 01:03:09;;;;;;;15.88;8.07;;;12.30;99.90;;;;;;4969864;28;20027;-74
2023/03/21 01:08:31;;;;;;;17.73;8.35;;;12.30;99.90;;;;;;4965533;28;20041;-74
2023/03/21 01:11:02;;;;;;;11.80;6.68;;;12.40;99.90;;;;;;4973545;28;20030;-74
2023/03/21 01:13:28;;;;;;;16.02;8.43;;;12.40;99.90;;;;;;4965331;28;20042;-74
2023/03/21 01:15:55;;;;;;;16.75;8.90;;;12.40;99.90;;;;;;4976211;28;20050;-74
2023/03/21 01:18:26;;;;;;;17.52;9.07;;;12.40;99.90;;;;;;4975611;28;20031;-75
2023/03/21 01:20:53;;;;;;;22.70;8.68;;;12.40;99.90;;;;;;4972080;28;20106;-74
2023/03/21 01:23:19;;;;;;;17.77;9.57;;;12.40;99.90;;;;;;4979750;28;20145;-75
2023/03/21 01:25:47;;;;;;;19.55;8.70;;;12.40;99.90;;;;;;4970609;28;20109;-75
2023/03/21 01:28:13;;;;;;;24.50;10.05;;;12.40;99.90;;;;;;4975721;28;20066;-75
2023/03/21 01:30:43;;;;;;;14.40;8.20;;;12.30;99.90;;;;;;4975146;28;20066;-75
2023/03/21 01:33:08;;;;;;;18.05;8.90;;;12.30;99.90;;;;;;4969440;28;20039;-75
2023/03/21 01:35:36;;;;;;;17.30;8.60;;;12.30;99.90;;;;;;4970008;28;20034;-74
2023/03/21 01:38:01;;;;;;;18.45;8.05;;;12.30;99.90;;;;;;4971105;28;20046;-75
2023/03/21 01:40:29;;;;;;;18.65;8.82;;;12.30;99.90;;;;;;4967692;28;20387;-74
2023/03/21 01:42:54;;;;;;;24.27;9.07;;;12.30;99.90;;;;;;4970337;28;20035;-74
2023/03/21 01:45:58;;;;;;;18.50;8.85;;;12.30;99.90;;;;;;4970440;28;20084;-74
2023/03/21 01:48:25;;;;;;;21.60;8.98;;;12.30;99.90;;;;;;4970229;28;20027;-74
2023/03/21 01:50:51;;;;;;;18.67;9.60;;;12.30;99.90;;;;;;4979570;28;20094;-74
2023/03/21 01:53:21;;;;;;;20.58;9.70;;;12.30;99.90;;;;;;4973116;28;20102;-74
2023/03/21 01:55:48;;;;;;;19.95;9.10;;;12.30;99.90;;;;;;4978474;28;20019;-74
2023/03/21 01:58:17;;;;;;;17.70;9.75;;;12.30;99.90;;;;;;4973618;28;20034;-75
2023/03/21 02:00:48;;;;;;;22.13;9.38;;;12.30;99.90;;;;;;4967812;28;20019;-74
2023/03/21 02:03:15;;;;;;;20.13;10.23;;;12.20;99.90;;;;;;4972852;28;20025;-75
2023/03/21 02:06:01;;;;;;;21.55;10.07;;;12.10;99.90;;;;;;4970306;28;20049;-74
2023/03/21 02:08:29;;;;;;;16.85;9.55;;;12.20;99.90;;;;;;4976442;28;20039;-76
2023/03/21 02:10:55;;;;;;;20.83;9.95;;;12.30;99.90;;;;;;4963883;28;20058;-76
2023/03/21 02:13:21;;;;;;;23.60;10.73;;;12.30;99.90;;;;;;4969326;28;20035;-74
2023/03/21 02:15:58;;;;;;;22.00;10.18;;;12.30;99.90;;;;;;4974015;28;20019;-75
2023/03/21 02:18:37;;;;;;;17.33;9.95;;;12.30;99.90;;;;;;4968330;28;20035;-74
2023/03/21 02:21:27;;;;;;;23.02;10.57;;;12.30;99.90;;;;;;4970609;28;20479;-74
2023/03/21 02:24:17;;;;;;;23.90;10.25;;;12.20;99.90;;;;;;4973686;28;20070;-74
2023/03/21 02:26:55;;;;;;;25.17;11.13;;;12.20;99.90;;;;;;4965787;28;20026;-74
2023/03/21 02:29:26;;;;;;;24.23;10.68;;;12.20;99.90;;;;;;4970463;28;20495;-74
2023/03/21 02:32:12;;;;;;;20.27;10.43;;;12.20;99.90;;;;;;4973111;28;20089;-74
2023/03/21 02:35:11;;;;;;;21.02;10.88;;;12.20;99.90;;;;;;4969241;28;20066;-74
2023/03/21 02:37:37;;;;;;;22.25;10.85;;;12.10;99.90;;;;;;4964316;28;20042;-73
2023/03/21 02:40:15;;;;;;;23.58;10.50;;;12.20;99.90;;;;;;4973216;28;20113;-73
2023/03/21 02:42:52;;;;;;;22.42;10.98;;;12.20;99.90;;;;;;4983026;28;20117;-72
2023/03/21 02:45:20;;;;;;;22.08;10.23;;;12.20;99.90;;;;;;4966101;28;20026;-72
2023/03/21 02:47:55;;;;;;;25.13;11.05;;;12.10;99.90;;;;;;4971493;28;20151;-72
2023/03/21 02:50:25;;;;;;;23.38;10.80;;;12.20;99.90;;;;;;4970438;28;20015;-72
2023/03/21 02:52:52;;;;;;;22.85;10.52;;;12.20;99.90;;;;;;4971213;28;20530;-72
2023/03/21 02:55:24;;;;;;;20.33;11.00;;;12.20;99.90;;;;;;4970881;28;20078;-72
2023/03/21 02:57:52;;;;;;;24.92;11.57;;;12.10;99.90;;;;;;4972493;28;20046;-72
2023/03/21 03:00:22;;;;;;;23.38;10.50;;;12.10;99.90;;;;;;4973650;28;20358;-72
2023/03/21 03:02:49;;;;;;;23.95;11.27;;;12.10;99.90;;;;;;4976304;28;20026;-72
2023/03/21 03:05:19;;;;;;;25.10;11.45;;;12.10;99.90;;;;;;4967107;28;20019;-72
2023/03/21 03:07:47;;;;;;;28.27;11.48;;;12.10;99.90;;;;;;4973652;28;20125;-72
2023/03/21 03:10:27;;;;;;;23.60;10.18;;;12.10;99.90;;;;;;4975525;28;20035;-73
2023/03/21 03:12:59;;;;;;;18.80;10.10;;;12.00;99.90;;;;;;4968795;28;20046;-72
2023/03/21 03:15:44;;;;;;;21.88;10.27;;;12.00;99.90;;;;;;4968989;28;20036;-73
2023/03/21 03:18:23;;;;;;;20.23;10.73;;;11.90;99.90;;;;;;4974030;28;20081;-73
2023/03/21 03:20:59;;;;;;;19.75;10.45;;;11.80;99.90;;;;;;4970186;28;20027;-72
2023/03/21 03:23:47;;;;;;;21.23;10.15;;;11.90;99.90;;;;;;4979102;28;20033;-72
2023/03/21 03:26:18;;;;;;;20.80;10.65;;;12.00;99.90;;;;;;4970894;28;20073;-73
2023/03/21 03:28:50;;;;;;;26.17;11.07;;;12.00;99.90;;;;;;4975921;28;20487;-73
2023/03/21 03:31:24;;;;;;;21.93;10.63;;;12.00;99.90;;;;;;4974840;28;20710;-73
2023/03/21 03:33:53;;;;;;;21.67;10.95;;;12.00;99.90;;;;;;4980782;28;20297;-73
2023/03/21 03:36:21;;;;;;;23.50;10.13;;;11.90;99.90;;;;;;4976918;28;20023;-73
2023/03/21 03:38:48;;;;;;;19.42;10.18;;;12.00;99.90;;;;;;4971587;28;20039;-73
2023/03/21 03:41:23;;;;;;;22.73;9.98;;;12.00;99.90;;;;;;4978717;28;20018;-73
2023/03/21 03:43:52;;;;;;;27.63;10.95;;;12.00;99.90;;;;;;4974118;28;20106;-73
2023/03/21 03:46:33;;;;;;;21.77;10.48;;;11.90;99.90;;;;;;4983108;28;20026;-73
2023/03/21 03:49:16;;;;;;;23.27;9.45;;;12.00;99.90;;;;;;4983624;28;20049;-73
2023/03/21 03:51:51;;;;;;;18.23;9.85;;;12.00;99.90;;;;;;4974794;28;20043;-73
2023/03/21 03:54:26;;;;;;;24.40;9.80;;;12.00;99.90;;;;;;4976602;28;20364;-73
2023/03/21 03:56:52;;;;;;;17.83;8.80;;;12.00;99.90;;;;;;4978366;28;20030;-73
2023/03/21 03:59:20;;;;;;;24.60;10.00;;;12.10;99.90;;;;;;4974207;28;20034;-73
2023/03/21 04:01:46;;;;;;;17.83;10.00;;;12.10;99.90;;;;;;4978064;28;20483;-73
2023/03/21 04:04:15;;;;;;;20.90;9.05;;;12.00;99.90;;;;;;4970331;28;20129;-73
2023/03/21 04:06:50;;;;;;;25.33;9.93;;;12.00;99.90;;;;;;4974453;28;20023;-73
2023/03/21 04:09:17;;;;;;;20.77;8.70;;;12.00;99.90;;;;;;4972458;28;20077;-73
2023/03/21 04:11:43;;;;;;;16.65;8.82;;;12.00;99.90;;;;;;4979176;28;20026;-73
2023/03/21 04:14:08;;;;;;;23.75;8.90;;;12.00;99.90;;;;;;4971698;28;20035;-74
2023/03/21 04:16:34;;;;;;;18.25;8.85;;;12.00;99.90;;;;;;4979531;28;20030;-73
2023/03/21 04:19:00;;;;;;;19.65;8.60;;;12.00;99.90;;;;;;4975586;28;20411;-73
2023/03/21 04:21:27;;;;;;;19.45;9.15;;;12.10;99.90;;;;;;4971921;28;20480;-73
2023/03/21 04:23:53;;;;;;;17.63;8.98;;;12.00;99.90;;;;;;4981538;28;20027;-73
2023/03/21 04:26:21;;;;;;;18.63;8.98;;;11.90;99.90;;;;;;4971223;28;20030;-74
2023/03/21 04:28:47;;;;;;;23.73;9.55;;;12.00;99.90;;;;;;4972826;28;20034;-73
2023/03/21 04:31:13;;;;;;;21.75;8.40;;;12.00;99.90;;;;;;4974040;28;20027;-74
2023/03/21 04:33:39;;;;;;;21.02;8.82;;;12.10;99.90;;;;;;4977796;28;20030;-74
2023/03/21 04:36:08;;;;;;;17.67;9.15;;;12.10;99.90;;;;;;4979088;28;20089;-74
2023/03/21 04:38:35;;;;;;;26.50;9.80;;;12.10;99.90;;;;;;4971037;28;20093;-73
2023/03/21 04:41:01;;;;;;;18.35;7.82;;;12.10;99.90;;;;;;4972621;28;20034;-74
2023/03/21 04:43:27;;;;;;;15.75;7.68;;;12.00;99.90;;;;;;4979434;28;20023;-74
2023/03/21 04:45:54;;;;;;;18.65;8.38;;;11.90;99.90;;;;;;4971400;28;20073;-74
2023/03/21 04:48:23;;;;;;;20.15;8.65;;;12.00;99.90;;;;;;4970956;28;20054;-74
2023/03/21 04:50:50;;;;;;;13.98;7.63;;;11.90;99.90;;;;;;4978112;28;20037;-74
2023/03/21 04:53:16;;;;;;;19.65;9.25;;;12.00;99.90;;;;;;4974959;28;20038;-74
2023/03/21 04:55:42;;;;;;;17.70;7.30;;;12.00;99.90;;;;;;4968622;28;20467;-74
2023/03/21 04:58:07;;;;;;;16.15;7.30;;;11.90;99.90;;;;;;4972591;28;20039;-74
2023/03/21 05:00:37;;;;;;;16.65;8.05;;;11.90;99.90;;;;;;4980552;28;20030;-74
2023/03/21 05:03:07;;;;;;;17.40;8.98;;;12.00;99.90;;;;;;4973105;28;20031;-74
2023/03/21 05:05:35;;;;;;;20.83;7.45;;;12.00;99.90;;;;;;4970414;28;20419;-73
2023/03/21 05:08:01;;;;;;;17.50;6.95;;;12.00;99.90;;;;;;4974521;28;20108;-74
2023/03/21 05:10:26;;;;;;;15.98;7.80;;;12.00;99.90;;;;;;4969526;28;20077;-74
2023/03/21 05:12:52;;;;;;;18.92;6.97;;;12.10;99.90;;;;;;4972320;28;20035;-74
2023/03/21 05:15:18;;;;;;;14.68;6.90;;;12.10;99.90;;;;;;4973952;28;20034;-74
2023/03/21 05:17:43;;;;;;;17.73;7.68;;;12.10;99.90;;;;;;4971715;28;20471;-74
2023/03/21 05:20:10;;;;;;;15.52;6.80;;;12.10;99.90;;;;;;4975242;28;20387;-74
2023/03/21 05:22:39;;;;;;;20.35;6.75;;;12.10;99.90;;;;;;4970586;28;20041;-74
2023/03/21 05:25:09;;;;;;;12.23;6.20;;;12.10;99.90;;;;;;4973844;28;20053;-74
2023/03/21 05:27:35;;;;;;;19.00;7.25;;;12.10;99.90;;;;;;4973593;28;20041;-74
2023/03/21 05:30:07;;;;;;;13.82;5.93;;;12.10;99.90;;;;;;4976730;28;20027;-74
2023/03/21 05:32:33;;;;;;;12.98;6.22;;;12.10;99.90;;;;;;4970862;28;20054;-74
2023/03/21 05:34:59;;;;;;;18.70;5.78;;;12.10;99.90;;;;;;4970402;28;20472;-74
2023/03/21 05:37:25;;;;;;;12.82;5.38;;;12.20;99.90;;;;;;4967982;28;20027;-74
2023/03/21 05:39:51;;;;;;;12.77;5.18;;;12.10;99.90;;;;;;4972700;28;20042;-74
2023/03/21 05:42:17;;;;;;;11.55;5.18;;;12.10;99.90;;;;;;4975881;28;20086;-73
2023/03/21 05:44:44;;;;;;;10.65;4.80;;;12.00;99.90;;;;;;4972109;28;20049;-74
2023/03/21 05:47:11;;;;;;;16.02;4.53;;;12.10;99.90;;;;;;4963599;28;20390;-74
2023/03/21 05:49:37;;;;;;;14.98;5.32;;;12.10;99.90;;;;;;4973430;28;20027;-74
2023/03/21 05:52:03;;;;;;;11.48;5.57;;;12.10;99.90;;;;;;4962648;28;20093;-74
2023/03/21 05:54:29;;;;;;;10.48;5.50;;;12.10;99.90;;;;;;4970123;28;20061;-74
2023/03/21 05:56:54;;;;;;;12.35;5.47;;;12.10;99.90;;;;;;4977972;28;20040;-74
2023/03/21 05:59:20;;;;;;;11.50;5.00;;;12.20;99.90;;;;;;4971241;28;20033;-74
2023/03/21 06:01:46;;;;;;;8.77;4.95;;;12.20;99.90;;;;;;4974932;28;20468;-74
2023/03/21 06:04:12;;;;;;;12.45;5.30;;;12.20;99.90;;;;;;4974802;28;20125;-73
2023/03/21 06:06:37;;;;;;;16.33;5.47;;;12.20;99.90;;;;;;4964532;28;20031;-74
2023/03/21 06:09:03;;;;;;;12.73;5.88;;;12.20;99.90;;;;;;4972790;28;20039;-75
2023/03/21 06:11:32;;;;;;;15.18;6.13;;;12.20;99.90;;;;;;4966692;28;20038;-74
2023/03/21 06:13:57;;;;;;;12.82;5.22;;;12.20;99.90;;;;;;4968339;28;20038;-73
2023/03/21 06:16:23;;;;;;;13.88;5.80;;;12.20;99.90;;;;;;4976141;28;20023;-74
2023/03/21 06:18:49;;;;;;;11.82;5.22;;;12.20;99.90;;;;;;4970919;28;20030;-74
2023/03/21 06:21:15;;;;;;;22.83;6.72;;;12.10;99.90;;;;;;4971122;28;20055;-74
2023/03/21 06:23:40;;;;;;;11.57;5.22;;;12.20;99.90;;;;;;4968885;28;20038;-73
2023/03/21 06:26:06;;;;;;;17.63;6.35;;;12.20;99.90;;;;;;4969775;28;20026;-73
2023/03/21 06:28:32;;;;;;;18.27;7.15;;;12.20;99.90;;;;;;4966971;28;20085;-74
2023/03/21 06:30:58;;;;;;;15.60;6.38;;;12.20;99.90;;;;;;4976245;28;20026;-73
2023/03/21 06:33:25;;;;;;;16.35;5.82;;;12.20;99.90;;;;;;4982687;28;20057;-74
2023/03/21 06:35:54;;;;;;;11.25;5.97;;;12.20;99.90;;;;;;4963475;28;20026;-74
2023/03/21 06:38:20;;;;;;;17.23;6.85;;;12.30;99.90;;;;;;4967552;28;20129;-74
2023/03/21 06:40:47;;;;;;;21.17;6.63;;;12.20;99.90;;;;;;4979350;28;20054;-73
2023/03/21 06:43:14;;;;;;;19.13;7.13;;;12.20;99.90;;;;;;4977305;28;20447;-73
2023/03/21 06:45:40;;;;;;;20.77;7.03;;;12.10;99.90;;;;;;4965736;28;20053;-73
2023/03/21 06:48:06;;;;;;;14.57;7.07;;;12.20;99.90;;;;;;4970853;28;20472;-72
2023/03/21 06:50:32;;;;;;;19.20;7.10;;;12.20;99.90;;;;;;4971544;28;20019;-72
2023/03/21 06:52:58;;;;;;;19.02;8.10;;;12.30;99.90;;;;;;4968036;28;20049;-72
2023/03/21 06:55:25;;;;;;;17.10;6.90;;;12.30;99.90;;;;;;4974140;28;20497;-72
2023/03/21 06:57:55;;;;;;;14.13;6.72;;;12.30;99.90;;;;;;4970159;28;20040;-72
2023/03/21 07:00:22;;;;;;;18.02;7.05;;;12.40;99.90;;;;;;4971404;28;20027;-73
2023/03/21 07:02:48;;;;;;;16.45;6.50;;;12.30;99.90;;;;;;4093812;28;10000882;-74
2023/03/21 07:05:14;;;;;;;17.88;7.43;;;12.20;99.90;;;;;;4922287;29;20473;-74
2023/03/21 07:07:40;;;;;;;16.08;7.85;;;12.30;99.90;;;;;;4925020;29;20658;-74
2023/03/21 07:10:06;;;;;;;19.42;7.60;;;12.30;99.90;;;;;;4930955;29;20055;-73
2023/03/21 07:12:34;;;;;;;15.38;7.75;;;12.30;99.90;;;;;;4928290;29;20089;-74
2023/03/21 07:15:01;;;;;;;16.83;7.00;;;12.30;99.90;;;;;;4931020;29;20080;-73
2023/03/21 07:17:27;;;;;;;20.63;7.60;;;12.30;99.90;;;;;;4929747;29;20126;-74
2023/03/21 07:19:53;;;;;;;15.57;7.30;;;12.30;99.90;;;;;;4920298;29;20481;-74
2023/03/21 07:22:19;;;;;;;11.27;5.90;;;12.40;99.90;;;;;;4926405;29;20095;-73
2023/03/21 07:24:47;;;;;;;21.77;6.95;;;12.40;99.90;;;;;;4924152;29;20358;-73
2023/03/21 07:27:16;;;;;;;15.55;7.13;;;12.40;99.90;;;;;;4923952;29;20087;-73
2023/03/21 07:29:43;;;;;;;13.88;6.55;;;12.30;99.90;;;;;;4926265;29;20863;-73
2023/03/21 07:32:10;;;;;;;19.75;7.32;;;12.40;99.90;;;;;;4927363;29;20042;-73
2023/03/21 07:34:36;;;;;;;12.43;6.55;;;12.40;99.90;;;;;;4930992;29;20396;-72
2023/03/21 07:37:03;;;;;;;16.15;6.57;;;12.40;99.90;;;;;;4922844;29;20032;-74
2023/03/21 07:39:31;;;;;;;17.45;7.80;;;12.30;99.90;;;;;;4929907;29;20496;-73
2023/03/21 07:41:57;;;;;;;15.02;7.13;;;12.40;99.90;;;;;;4928106;29;20110;-74
2023/03/21 07:44:23;;;;;;;16.77;6.57;;;12.30;99.90;;;;;;4927502;29;20118;-73
2023/03/21 07:46:49;;;;;;;11.80;6.43;;;12.40;99.90;;;;;;4922123;29;20032;-74
2023/03/21 07:49:14;;;;;;;13.70;6.95;;;12.40;99.90;;;;;;4922675;29;20035;-73
2023/03/21 07:51:40;;;;;;;13.57;7.15;;;12.40;99.90;;;;;;4926310;29;20044;-73
2023/03/21 07:54:06;;;;;;;16.52;6.93;;;12.40;99.90;;;;;;4920775;29;20047;-75
2023/03/21 07:56:32;;;;;;;20.73;7.35;;;12.30;99.90;;;;;;4926187;29;20063;-75
2023/03/21 07:58:58;;;;;;;13.80;7.65;;;12.20;99.90;;;;;;4930882;29;20032;-74
2023/03/21 08:01:24;;;;;;;16.48;7.90;;;12.30;99.90;;;;;;4920643;29;20036;-74
2023/03/21 08:03:52;;;;;;;15.82;7.32;;;12.40;99.90;;;;;;4929669;29;20074;-73
2023/03/21 08:06:19;;;;;;;21.95;7.95;;;12.40;99.90;;;;;;4931361;29;20384;-74
2023/03/21 08:08:45;;;;;;;15.40;8.52;;;12.40;99.90;;;;;;4925285;29;20620;-75
2023/03/21 08:11:11;;;;;;;22.25;8.48;;;12.50;99.90;;;;;;4931992;29;20062;-74
2023/03/21 08:13:37;;;;;;;21.25;8.38;;;12.50;99.90;;;;;;4926249;28;20044;-74
2023/03/21 08:16:02;;;;;;;21.17;8.15;;;12.60;99.90;;;;;;4930105;29;20560;-74
2023/03/21 08:18:28;;;;;;;18.15;7.30;;;12.60;99.90;;;;;;4926410;29;20043;-74
2023/03/21 08:20:56;;;;;;;18.67;7.32;;;12.70;99.90;;;;;;4932914;29;20500;-74
2023/03/21 08:23:23;;;;;;;19.15;7.43;;;12.70;99.90;;;;;;4925892;29;20031;-73
2023/03/21 08:25:56;;;;;;;19.02;7.65;;;12.60;99.90;;;;;;4906897;29;20685;-73
2023/03/21 08:28:22;;;;;;;17.67;7.10;;;12.60;99.90;;;;;;4929678;29;20102;-74
2023/03/21 08:30:48;;;;;;;18.63;8.10;;;12.60;99.90;;;;;;4929081;29;20031;-74
2023/03/21 08:33:14;;;;;;;20.83;8.35;;;12.60;99.90;;;;;;4929378;29;20039;-74
2023/03/21 08:35:40;;;;;;;15.57;8.00;;;12.60;99.90;;;;;;4930308;29;20055;-75
2023/03/21 08:38:06;;;;;;;16.10;7.35;;;12.50;99.90;;;;;;4928276;29;20052;-74
2023/03/21 08:40:33;;;;;;;16.35;7.80;;;12.50;99.90;;;;;;4929131;29;20032;-75
2023/03/21 08:42:59;;;;;;;14.80;7.78;;;12.50;99.90;;;;;;4930498;29;20031;-75
2023/03/21 08:45:25;;;;;;;16.35;6.95;;;12.40;99.90;;;;;;4924258;29;20481;-74
2023/03/21 08:47:52;;;;;;;14.88;7.80;;;12.50;99.90;;;;;;4930090;29;20027;-74
2023/03/21 08:50:21;;;;;;;18.33;7.60;;;12.40;99.90;;;;;;4927886;29;20031;-75
2023/03/21 08:52:47;;;;;;;15.18;7.15;;;12.40;99.90;;;;;;4930121;29;20054;-75
2023/03/21 08:55:15;;;;;;;17.13;7.70;;;12.40;99.90;;;;;;4929242;29;20027;-75
2023/03/21 08:57:41;;;;;;;15.10;7.07;;;12.40;99.90;;;;;;4931627;29;20433;-75
2023/03/21 09:00:12;;;;;;;17.52;7.80;;;12.40;99.90;;;;;;4923898;29;20027;-76
2023/03/21 09:02:39;;;;;;;13.38;9.07;;;12.50;99.90;;;;;;4927366;29;20059;-76
2023/03/21 09:05:06;;;;;;;16.38;7.93;;;12.60;99.90;;;;;;4930766;29;20503;-76
2023/03/21 09:07:35;;;;;;;14.35;7.18;;;12.60;99.90;;;;;;4924248;29;20099;-76
2023/03/21 09:10:02;;;;;;;18.15;8.85;;;12.50;99.90;;;;;;4941509;28;20038;-76
2023/03/21 09:12:27;;;;;;;15.20;6.70;;;12.50;99.90;;;;;;4929322;29;20114;-75
2023/03/21 09:14:53;;;;;;;14.07;6.60;;;12.50;99.90;;;;;;4930409;29;20111;-75
2023/03/21 09:17:19;;;;;;;15.02;6.28;;;12.60;99.90;;;;;;4926351;29;20031;-75
2023/03/21 09:19:48;;;;;;;13.27;5.80;;;12.60;99.90;;;;;;4928305;29;20023;-75
2023/03/21 09:22:16;;;;;;;13.95;6.60;;;12.60;99.90;;;;;;4928915;29;20058;-76
2023/03/21 09:24:45;;;;;;;12.25;5.97;;;12.70;99.90;;;;;;4923463;29;20103;-77
2023/03/21 09:27:11;;;;;;;11.35;5.45;;;12.80;99.90;;;;;;4928347;29;20481;-76
2023/03/21 09:29:38;;;;;;;13.40;5.57;;;12.70;99.90;;;;;;4925167;29;20075;-76
2023/03/21 09:32:05;;;;;;;9.75;4.78;;;12.70;99.90;;;;;;4927673;29;20453;-76
2023/03/21 09:34:31;;;;;;;13.55;5.78;;;12.90;99.90;;;;;;4930220;29;20046;-76
2023/03/21 09:36:57;;;;;;;10.70;5.13;;;12.90;99.90;;;;;;4939139;28;20039;-75
2023/03/21 09:39:23;;;;;;;13.60;4.90;;;12.90;99.90;;;;;;4929004;29;20477;-76
2023/03/21 09:42:19;;;;;;;14.63;5.97;;;12.90;99.90;;;;;;4926750;29;20035;-77
2023/03/21 09:45:15;;;;;;;30.58;19.40;;;12.90;99.90;;;;;;4935044;28;20445;-77
2023/03/21 09:47:51;;;;;;;8.95;5.40;;;13.00;99.90;;;;;;4925588;29;20469;-76
2023/03/21 09:50:26;;;;;;;10.13;5.35;;;13.00;99.90;;;;;;4928877;29;20031;-76
2023/03/21 09:53:19;;;;;;;13.70;5.85;;;13.00;99.90;;;;;;4924941;29;20036;-76
2023/03/21 09:55:46;;;;;;;9.55;5.28;;;13.10;99.90;;;;;;4923971;29;20058;-76
2023/03/21 09:58:58;;;;;;;12.68;5.55;;;13.20;99.90;;;;;;4927099;29;20028;-76
2023/03/21 10:01:40;;;;;;;14.07;5.80;;;13.20;99.90;;;;;;4927191;29;20465;-76
2023/03/21 10:04:10;;;;;;;15.90;5.72;;;13.20;99.90;;;;;;4925006;29;20023;-75
2023/03/21 10:06:40;;;;;;;12.82;5.50;;;13.30;99.90;;;;;;4924867;29;20067;-76
2023/03/21 10:09:10;;;;;;;13.18;5.22;;;13.50;99.90;;;;;;4925177;29;20084;-76
2023/03/21 10:12:13;;;;;;;11.02;6.35;;;13.40;99.90;;;;;;4927795;29;20028;-76
2023/03/21 10:14:46;;;;;;;12.02;4.65;;;13.40;99.90;;;;;;4925540;29;20131;-77
2023/03/21 10:17:32;;;;;;;14.85;5.45;;;13.40;99.90;;;;;;4925942;29;20473;-76
2023/03/21 10:20:14;;;;;;;9.68;4.45;;;13.50;99.90;;;;;;4925586;29;22748;-76
2023/03/21 10:22:41;;;;;;;11.93;5.73;;;13.40;99.90;;;;;;4928235;29;20024;-76
2023/03/21 10:25:16;;;;;;;12.68;4.90;;;13.40;99.90;;;;;;4927665;29;20358;-76
2023/03/21 10:27:42;;;;;;;11.07;4.80;;;13.50;99.90;;;;;;4924053;29;20477;-77
2023/03/21 10:30:19;;;;;;;10.32;4.75;;;13.60;99.90;;;;;;4938980;28;20032;-76
2023/03/21 10:32:45;;;;;;;12.50;4.40;;;13.60;99.90;;;;;;4924625;29;20489;-76
2023/03/21 10:35:12;;;;;;;9.40;4.85;;;13.70;99.90;;;;;;4939542;28;20039;-76
2023/03/21 10:37:38;;;;;;;12.38;5.03;;;13.80;99.90;;;;;;4925541;29;20072;-77
2023/03/21 10:40:07;;;;;;;12.02;5.43;;;13.80;99.90;;;;;;4921399;29;20059;-76
2023/03/21 10:42:35;;;;;;;13.48;4.75;;;13.80;99.90;;;;;;4926454;29;20046;-76
2023/03/21 10:45:00;;;;;;;12.05;5.30;;;14.00;99.90;;;;;;4927042;29;20110;-76
2023/03/21 10:47:32;;;;;;;15.23;5.22;;;14.00;99.90;;;;;;4924491;29;20477;-77
2023/03/21 10:50:06;;;;;;;11.00;5.00;;;14.10;99.90;;;;;;4925067;29;20074;-76
2023/03/21 10:52:34;;;;;;;8.13;4.50;;;14.20;99.90;;;;;;4926632;29;20054;-76
2023/03/21 10:55:31;;;;;;;14.52;4.40;;;14.20;99.90;;;;;;4926012;29;20738;-76
2023/03/21 10:58:09;;;;;;;12.23;4.60;;;14.20;99.90;;;;;;4924413;29;20106;-76
2023/03/21 11:00:40;;;;;;;10.23;4.65;;;14.20;99.90;;;;;;4925451;29;20485;-76
2023/03/21 11:03:16;;;;;;;11.02;4.53;;;14.20;99.90;;;;;;4923447;29;20028;-76
2023/03/21 11:05:42;;;;;;;6.28;4.00;;;14.10;99.90;;;;;;4924340;29;20115;-77
2023/03/21 11:08:15;;;;;;;7.25;4.40;;;14.10;99.90;;;;;;4923774;29;20404;-76
2023/03/21 11:10:58;;;;;;;11.43;4.90;;;14.20;99.90;;;;;;4923608;29;20086;-77
2023/03/21 11:13:31;;;;;;;11.38;3.95;;;14.20;99.90;;;;;;4925520;29;20039;-77
2023/03/21 11:16:10;;;;;;;9.75;4.07;;;14.30;99.90;;;;;;4925300;29;20025;-76
2023/03/21 11:18:42;;;;;;;11.93;4.30;;;14.20;99.90;;;;;;4925382;29;20055;-76
2023/03/21 11:21:12;;;;;;;9.77;3.97;;;14.20;99.90;;;;;;4920737;29;20122;-76
2023/03/21 11:23:46;;;;;;;9.85;4.43;;;14.30;99.90;;;;;;4923133;29;20034;-76
2023/03/21 11:26:29;;;;;;;6.55;3.97;;;14.30;99.90;;;;;;4926060;29;20448;-76
2023/03/21 11:28:55;;;;;;;7.50;3.28;;;14.40;99.90;;;;;;4922832;29;20477;-77
2023/03/21 11:31:23;;;;;;;10.50;4.07;;;14.50;99.90;;;;;;4921021;29;20031;-76
2023/03/21 11:33:58;;;;;;;8.07;3.97;;;14.50;99.90;;;;;;4925175;29;19957;-76
2023/03/21 11:36:32;;;;;;;12.50;4.10;;;14.60;99.90;;;;;;4920902;29;20181;-75
2023/03/21 11:39:11;;;;;;;6.82;3.60;;;14.70;99.90;;;;;;4924484;28;20036;-75
2023/03/21 11:41:40;;;;;;;9.02;4.50;;;14.70;99.90;;;;;;4924722;29;20040;-75
2023/03/21 11:44:25;;;;;;;7.25;4.32;;;14.80;99.90;;;;;;4924573;29;20035;-76
2023/03/21 11:46:52;;;;;;;13.57;5.25;;;14.90;99.90;;;;;;4926185;29;20028;-76
2023/03/21 11:49:19;;;;;;;11.57;3.90;;;15.00;99.90;;;;;;4927144;29;20035;-75
2023/03/21 11:51:56;;;;;;;8.45;3.50;;;15.00;99.90;;;;;;4927817;29;20020;-76
2023/03/21 11:54:34;;;;;;;9.38;3.45;;;15.10;99.90;;;;;;4925257;29;20102;-76
2023/03/21 11:57:06;;;;;;;10.02;3.35;;;15.10;99.90;;;;;;4930773;29;20032;-76
2023/03/21 12:00:12;;;;;;;12.63;3.55;;;15.10;99.90;;;;;;4926606;29;20071;-76
2023/03/21 12:03:28;;;;;;;9.10;3.83;;;15.20;99.90;;;;;;4928721;29;20429;-76
2023/03/21 12:06:01;;;;;;;8.32;4.43;;;15.40;99.90;;;;;;4926925;29;20107;-76
2023/03/21 12:08:47;;;;;;;9.77;3.40;;;15.40;99.90;;;;;;4929510;29;20032;-76
2023/03/21 12:11:24;;;;;;;11.82;3.60;;;15.50;99.90;;;;;;4929154;29;20051;-76
2023/03/21 12:14:22;;;;;;;9.15;3.95;;;15.60;99.90;;;;;;4924936;29;20094;-76
2023/03/21 12:17:17;;;;;;;6.80;4.00;;;15.80;99.90;;;;;;4937632;28;20048;-76
2023/03/21 12:20:20;;;;;;;7.20;3.20;;;15.90;99.90;;;;;;4927150;29;20024;-76
2023/03/21 12:23:14;;;;;;;6.35;3.33;;;16.10;99.90;;;;;;4928330;29;20039;-76
2023/03/21 12:25:43;;;;;;;8.10;3.70;;;16.20;99.90;;;;;;4926863;29;20040;-77
2023/03/21 12:28:27;;;;;;;9.02;3.40;;;16.30;99.90;;;;;;4926087;29;20034;-77
2023/03/21 12:31:15;;;;;;;5.60;3.40;;;16.20;99.90;;;;;;4925317;29;20036;-77
2023/03/21 12:33:47;;;;;;;9.23;3.85;;;16.40;99.90;;;;;;4927619;29;20459;-77
2023/03/21 12:36:22;;;;;;;5.30;3.88;;;16.40;99.90;;;;;;4925529;29;20023;-77
2023/03/21 12:39:09;;;;;;;10.23;3.25;;;16.40;99.90;;;;;;4923712;29;20492;-77
2023/03/21 12:41:51;;;;;;;7.90;3.67;;;16.40;99.90;;;;;;4929042;29;20521;-77
2023/03/21 12:44:21;;;;;;;6.32;3.95;;;16.50;99.90;;;;;;4924121;29;20261;-77
2023/03/21 12:46:53;;;;;;;9.55;3.70;;;16.60;99.90;;;;;;4941353;28;20027;-77
2023/03/21 12:49:40;;;;;;;9.60;3.70;;;16.60;99.90;;;;;;4925546;29;20027;-78
2023/03/21 12:52:18;;;;;;;7.75;3.63;;;16.40;99.90;;;;;;4926307;29;20055;-77
2023/03/21 12:54:48;;;;;;;7.63;3.60;;;16.40;99.90;;;;;;4926106;29;20083;-78
2023/03/21 12:57:41;;;;;;;14.23;4.15;;;16.30;99.90;;;;;;4924721;29;20078;-76